Time;durP1;ratioP1;P1;durP2;ratioP2;P2;SDS_P1;SDS_P2;PMS_P1;PMS_P2;Temp;Humidity;BMP_temperature;BMP_pressure;BME280_temperature;BME280_humidity;BME280_pressure;Samples;Min_cycle;Max_cycle;Signal;HPM_P1;HPM_P2
2022/03/24 00:01:48;;;;;;;43.65;25.27;;;7.20;88.20;;;;;;5031235;28;20431;-56
2022/03/24 00:04:14;;;;;;;40.67;25.48;;;7.20;89.20;;;;;;5030820;28;20582;-52
2022/03/24 00:06:40;;;;;;;43.30;25.65;;;7.10;89.70;;;;;;5029638;28;20080;-52
2022/03/24 00:09:05;;;;;;;44.33;25.92;;;7.10;90.30;;;;;;5028855;28;20069;-54
2022/03/24 00:11:31;;;;;;;44.42;26.48;;;7.00;90.50;;;;;;5030807;28;20136;-53
2022/03/24 00:13:57;;;;;;;39.38;24.90;;;7.00;90.80;;;;;;5021393;28;20038;-55
2022/03/24 00:16:23;;;;;;;37.35;23.50;;;6.90;91.10;;;;;;5025663;28;20555;-53
2022/03/24 00:18:49;;;;;;;42.33;25.33;;;6.80;91.80;;;;;;5034772;28;20083;-53
2022/03/24 00:21:16;;;;;;;49.30;27.73;;;6.80;92.40;;;;;;5034006;28;20041;-55
2022/03/24 00:23:42;;;;;;;45.65;27.40;;;6.80;92.80;;;;;;5034398;28;20056;-54
2022/03/24 00:26:08;;;;;;;42.10;26.45;;;6.80;93.20;;;;;;5033989;28;20116;-54
2022/03/24 00:28:34;;;;;;;42.83;26.98;;;6.80;93.50;;;;;;5034189;28;20465;-51
2022/03/24 00:31:01;;;;;;;47.67;27.70;;;6.80;93.70;;;;;;5034088;28;20043;-53
2022/03/24 00:33:29;;;;;;;45.70;28.45;;;6.80;93.80;;;;;;5028819;28;20525;-54
2022/03/24 00:35:56;;;;;;;45.35;27.90;;;6.80;94.10;;;;;;5024506;28;20121;-53
2022/03/24 00:38:22;;;;;;;48.97;27.45;;;6.80;94.30;;;;;;5033737;28;20465;-54
2022/03/24 00:40:48;;;;;;;48.83;28.88;;;6.80;94.60;;;;;;5033893;28;20072;-53
2022/03/24 00:43:14;;;;;;;42.58;27.33;;;6.70;94.70;;;;;;5033833;28;20049;-53
2022/03/24 00:45:40;;;;;;;47.45;27.30;;;6.70;95.10;;;;;;5033673;28;20128;-55
2022/03/24 00:48:07;;;;;;;48.17;27.48;;;6.70;95.70;;;;;;5021047;28;20049;-52
2022/03/24 00:50:32;;;;;;;45.05;26.80;;;6.60;95.60;;;;;;5024952;28;20386;-51
2022/03/24 00:52:58;;;;;;;45.63;27.70;;;6.50;95.90;;;;;;5032413;28;20095;-53
2022/03/24 00:55:24;;;;;;;49.45;26.70;;;6.50;96.10;;;;;;5033645;28;20099;-56
2022/03/24 00:57:51;;;;;;;43.63;26.15;;;6.40;96.50;;;;;;5033297;28;20102;-52
2022/03/24 01:00:19;;;;;;;41.28;26.75;;;6.40;96.70;;;;;;5033735;28;20045;-54
2022/03/24 01:02:48;;;;;;;47.03;27.52;;;6.40;97.00;;;;;;5033407;28;20079;-54
2022/03/24 01:05:15;;;;;;;44.63;26.38;;;6.30;97.50;;;;;;5033372;28;20520;-53
2022/03/24 01:07:42;;;;;;;41.90;26.60;;;6.30;97.80;;;;;;5032941;28;20040;-52
2022/03/24 01:10:09;;;;;;;46.10;26.50;;;6.30;97.90;;;;;;5033189;28;20120;-53
2022/03/24 01:12:35;;;;;;;47.75;26.52;;;6.30;98.30;;;;;;5033171;28;20042;-51
2022/03/24 01:15:04;;;;;;;44.20;26.88;;;6.20;98.50;;;;;;5033176;28;20089;-51
2022/03/24 01:17:31;;;;;;;40.78;26.23;;;6.10;99.00;;;;;;5033327;28;20045;-50
2022/03/24 01:19:57;;;;;;;48.00;27.20;;;6.10;99.30;;;;;;5032226;28;20045;-53
2022/03/24 01:22:23;;;;;;;43.78;27.23;;;6.00;99.30;;;;;;5035764;28;20033;-53
2022/03/24 01:24:48;;;;;;;49.30;27.63;;;5.90;99.70;;;;;;5044768;28;20041;-50
2022/03/24 01:27:15;;;;;;;47.05;26.52;;;5.90;99.80;;;;;;5041457;28;20087;-51
2022/03/24 01:29:41;;;;;;;43.20;25.98;;;5.80;99.90;;;;;;5032828;28;20131;-53
2022/03/24 01:32:07;;;;;;;42.15;26.10;;;5.80;99.90;;;;;;5033140;28;20076;-53
2022/03/24 01:34:37;;;;;;;44.40;26.05;;;5.80;99.90;;;;;;5026036;28;20068;-53
2022/03/24 01:37:07;;;;;;;47.28;27.02;;;5.80;99.90;;;;;;5039118;28;20120;-52
2022/03/24 01:39:33;;;;;;;42.58;25.95;;;5.70;99.90;;;;;;5045599;28;20036;-54
2022/03/24 01:42:00;;;;;;;42.55;26.75;;;5.80;99.90;;;;;;5041845;28;20426;-50
2022/03/24 01:44:27;;;;;;;45.00;27.02;;;5.70;99.90;;;;;;5032579;28;20052;-53
2022/03/24 01:47:09;;;;;;;52.70;26.45;;;5.70;99.90;;;;;;5032709;28;20046;-50
2022/03/24 01:49:39;;;;;;;50.70;28.27;;;5.60;99.90;;;;;;5032692;28;20490;-50
2022/03/24 01:52:07;;;;;;;44.38;26.98;;;5.60;99.90;;;;;;5032536;28;20067;-51
2022/03/24 01:54:34;;;;;;;46.30;28.52;;;5.60;99.90;;;;;;5040110;28;20048;-52
2022/03/24 01:57:01;;;;;;;46.88;27.42;;;5.60;99.90;;;;;;5050338;28;20032;-53
2022/03/24 01:59:28;;;;;;;48.03;27.42;;;5.50;99.90;;;;;;5052413;28;20068;-50
2022/03/24 02:01:54;;;;;;;48.80;28.25;;;5.50;99.90;;;;;;5052404;28;20041;-53
2022/03/24 02:04:20;;;;;;;48.03;28.33;;;5.50;99.90;;;;;;5052174;28;20500;-55
2022/03/24 02:06:46;;;;;;;49.58;27.90;;;5.40;99.90;;;;;;5051862;28;20043;-51
2022/03/24 02:09:13;;;;;;;46.10;27.95;;;5.40;99.90;;;;;;5050496;28;20037;-50
2022/03/24 02:11:39;;;;;;;45.78;26.77;;;5.40;99.90;;;;;;5013106;28;20042;-52
2022/03/24 02:14:06;;;;;;;45.42;27.70;;;5.30;99.90;;;;;;5012416;28;20049;-51
2022/03/24 02:16:34;;;;;;;49.10;27.83;;;5.30;99.90;;;;;;5031344;28;20037;-50
2022/03/24 02:19:10;;;;;;;47.67;28.55;;;5.30;99.90;;;;;;5032223;28;20548;-50
2022/03/24 02:21:37;;;;;;;49.45;29.55;;;5.30;99.90;;;;;;5031407;28;20408;-50
2022/03/24 02:24:03;;;;;;;49.38;29.60;;;5.30;99.90;;;;;;5019101;28;20034;-52
2022/03/24 02:26:28;;;;;;;54.10;29.67;;;5.20;99.90;;;;;;5025065;28;20087;-53
2022/03/24 02:28:56;;;;;;;48.13;28.50;;;5.20;99.90;;;;;;5022695;28;20397;-50
2022/03/24 02:31:23;;;;;;;49.42;28.13;;;5.20;99.90;;;;;;5016371;28;20091;-50
2022/03/24 02:33:48;;;;;;;47.65;28.67;;;5.10;99.90;;;;;;5039757;28;20041;-50
2022/03/24 02:36:14;;;;;;;46.88;26.85;;;5.10;99.90;;;;;;5043372;28;20041;-51
2022/03/24 02:38:40;;;;;;;45.05;28.02;;;5.10;99.90;;;;;;5041202;28;20044;-51
2022/03/24 02:41:06;;;;;;;44.47;28.38;;;5.10;99.90;;;;;;5031735;28;20171;-53
2022/03/24 02:43:31;;;;;;;48.92;29.50;;;5.00;99.90;;;;;;5031539;28;20120;-53
2022/03/24 02:45:57;;;;;;;49.08;30.05;;;5.00;99.90;;;;;;5031610;28;20124;-55
2022/03/24 02:48:23;;;;;;;54.08;31.00;;;5.00;99.90;;;;;;5031043;28;20050;-53
2022/03/24 02:50:49;;;;;;;52.28;30.90;;;5.00;99.90;;;;;;5031078;28;20037;-49
2022/03/24 02:53:15;;;;;;;59.97;29.60;;;5.00;99.90;;;;;;5030381;28;20555;-50
2022/03/24 02:55:41;;;;;;;47.67;29.13;;;5.00;99.90;;;;;;5016390;28;20409;-54
2022/03/24 02:58:07;;;;;;;52.78;31.83;;;5.10;99.90;;;;;;5029035;28;20033;-51
2022/03/24 03:00:32;;;;;;;59.92;32.03;;;5.00;99.90;;;;;;5031425;28;20452;-51
2022/03/24 03:02:58;;;;;;;56.53;31.02;;;5.00;99.90;;;;;;5030657;28;20393;-53
2022/03/24 03:05:23;;;;;;;53.83;30.92;;;5.00;99.90;;;;;;5031391;28;20053;-52
2022/03/24 03:07:50;;;;;;;52.83;29.42;;;5.00;99.90;;;;;;5031451;28;20309;-51
2022/03/24 03:10:16;;;;;;;47.17;29.77;;;5.00;99.90;;;;;;5031024;28;20033;-53
2022/03/24 03:12:46;;;;;;;54.95;31.35;;;5.00;99.90;;;;;;5031259;28;20035;-51
2022/03/24 03:15:12;;;;;;;57.00;31.27;;;5.00;99.90;;;;;;5031403;28;20413;-55
2022/03/24 03:17:37;;;;;;;52.63;32.42;;;5.00;99.90;;;;;;5030557;28;20034;-52
2022/03/24 03:20:07;;;;;;;51.75;30.15;;;5.00;99.90;;;;;;5031397;28;20151;-54
2022/03/24 03:22:32;;;;;;;55.90;31.50;;;4.90;99.90;;;;;;5031455;28;20048;-54
2022/03/24 03:24:59;;;;;;;53.03;30.52;;;4.90;99.90;;;;;;5031395;28;20041;-52
2022/03/24 03:27:25;;;;;;;61.33;30.10;;;4.90;99.90;;;;;;5030984;28;20053;-52
2022/03/24 03:29:51;;;;;;;54.45;30.48;;;4.80;99.90;;;;;;5030721;28;20068;-52
2022/03/24 03:32:16;;;;;;;55.03;31.13;;;4.80;99.90;;;;;;5030809;28;20375;-55
2022/03/24 03:34:43;;;;;;;52.38;31.40;;;4.80;99.90;;;;;;5013401;28;20042;-50
2022/03/24 03:37:09;;;;;;;53.92;30.95;;;4.70;99.90;;;;;;5031223;28;20320;-52
2022/03/24 03:39:35;;;;;;;51.78;30.33;;;4.70;99.90;;;;;;5031101;28;20033;-54
2022/03/24 03:42:01;;;;;;;55.47;31.55;;;4.70;99.90;;;;;;5021522;28;20129;-52
2022/03/24 03:44:27;;;;;;;53.00;30.70;;;4.60;99.90;;;;;;5023899;28;20089;-50
2022/03/24 03:46:53;;;;;;;52.28;30.80;;;4.60;99.90;;;;;;5030499;28;20045;-52
2022/03/24 03:49:20;;;;;;;51.03;30.58;;;4.60;99.90;;;;;;5033832;28;20090;-50
2022/03/24 03:51:46;;;;;;;53.55;31.20;;;4.60;99.90;;;;;;5045965;28;20063;-50
2022/03/24 03:54:12;;;;;;;55.47;31.27;;;4.60;99.90;;;;;;5034774;28;20407;-51
2022/03/24 03:56:38;;;;;;;53.28;31.30;;;4.60;99.90;;;;;;5042594;28;20454;-53
2022/03/24 03:59:05;;;;;;;54.13;30.58;;;4.50;99.90;;;;;;5044326;28;20044;-52
2022/03/24 04:01:31;;;;;;;54.33;31.88;;;4.50;99.90;;;;;;5028831;28;20049;-51
2022/03/24 04:03:57;;;;;;;55.15;30.83;;;4.50;99.90;;;;;;5023838;28;20045;-52
2022/03/24 04:06:24;;;;;;;56.42;31.90;;;4.50;99.90;;;;;;5034473;28;20104;-51
2022/03/24 04:08:50;;;;;;;52.95;32.35;;;4.50;99.90;;;;;;5049824;28;20045;-54
2022/03/24 04:11:15;;;;;;;59.97;32.67;;;4.50;99.90;;;;;;5053332;28;20052;-54
2022/03/24 04:13:42;;;;;;;58.78;33.08;;;4.50;99.90;;;;;;5033669;28;20049;-54
2022/03/24 04:16:11;;;;;;;54.90;30.27;;;4.50;99.90;;;;;;5031770;28;20041;-54
2022/03/24 04:18:41;;;;;;;52.15;29.25;;;4.50;99.90;;;;;;5020964;28;20041;-53
2022/03/24 04:21:07;;;;;;;52.50;29.58;;;4.40;99.90;;;;;;5034406;28;20112;-54
2022/03/24 04:23:35;;;;;;;56.72;30.85;;;4.30;99.90;;;;;;5042474;28;20045;-54
2022/03/24 04:26:01;;;;;;;50.20;31.27;;;4.30;99.90;;;;;;5045644;28;20041;-54
2022/03/24 04:28:26;;;;;;;57.50;33.65;;;4.20;99.90;;;;;;5033559;28;20408;-55
2022/03/24 04:30:52;;;;;;;60.10;34.13;;;4.20;99.90;;;;;;5033088;28;20052;-54
2022/03/24 04:33:18;;;;;;;57.47;32.90;;;4.20;99.90;;;;;;5034183;28;20046;-54
2022/03/24 04:35:44;;;;;;;59.75;33.33;;;4.30;99.90;;;;;;5034142;28;20072;-56
2022/03/24 04:38:09;;;;;;;61.45;34.80;;;4.30;99.90;;;;;;5033636;28;20045;-54
2022/03/24 04:40:35;;;;;;;62.97;34.70;;;4.30;99.90;;;;;;5033115;28;20483;-54
2022/03/24 04:43:01;;;;;;;61.42;35.00;;;4.30;99.90;;;;;;5025497;28;20107;-54
2022/03/24 04:45:29;;;;;;;56.85;34.38;;;4.30;99.90;;;;;;5029013;28;20053;-54
2022/03/24 04:47:55;;;;;;;59.75;34.33;;;4.30;99.90;;;;;;5019102;28;20469;-54
2022/03/24 04:50:21;;;;;;;62.72;33.33;;;4.20;99.90;;;;;;5018919;28;20192;-55
2022/03/24 04:52:47;;;;;;;60.10;33.17;;;4.20;99.90;;;;;;5033758;28;20159;-54
2022/03/24 04:55:13;;;;;;;58.40;33.08;;;4.10;99.90;;;;;;5032443;28;20053;-53
2022/03/24 04:57:39;;;;;;;59.47;34.00;;;4.10;99.90;;;;;;5033473;28;20038;-54
2022/03/24 05:00:06;;;;;;;58.00;32.25;;;4.10;99.90;;;;;;5043830;28;20660;-54
2022/03/24 05:02:32;;;;;;;54.33;32.13;;;4.00;99.90;;;;;;5053334;28;20033;-54
2022/03/24 05:04:57;;;;;;;54.72;32.38;;;3.90;99.90;;;;;;5043655;28;20040;-54
2022/03/24 05:07:23;;;;;;;56.13;32.15;;;3.90;99.90;;;;;;5033127;28;20127;-54
2022/03/24 05:09:50;;;;;;;58.08;32.58;;;3.90;99.90;;;;;;5033357;28;20101;-53
2022/03/24 05:12:16;;;;;;;56.10;32.13;;;3.90;99.90;;;;;;5032236;28;20356;-55
2022/03/24 05:14:42;;;;;;;60.78;33.25;;;3.90;99.90;;;;;;5033471;28;20045;-54
2022/03/24 05:17:08;;;;;;;56.78;33.10;;;3.90;99.90;;;;;;5032594;28;20025;-54
2022/03/24 05:19:34;;;;;;;59.38;34.35;;;3.80;99.90;;;;;;5033238;28;20038;-53
2022/03/24 05:22:01;;;;;;;58.70;32.63;;;3.80;99.90;;;;;;5032948;28;20069;-54
2022/03/24 05:24:26;;;;;;;62.20;33.13;;;3.80;99.90;;;;;;5031563;28;20045;-54
2022/03/24 05:26:52;;;;;;;62.30;33.80;;;3.80;99.90;;;;;;5032812;28;20041;-54
2022/03/24 05:29:18;;;;;;;62.67;33.85;;;3.80;99.90;;;;;;5032883;28;20046;-50
2022/03/24 05:31:43;;;;;;;56.85;33.67;;;3.80;99.90;;;;;;5017534;28;20069;-54
2022/03/24 05:34:09;;;;;;;58.45;32.65;;;3.80;99.90;;;;;;5032037;28;20038;-54
2022/03/24 05:36:34;;;;;;;62.53;34.20;;;3.80;99.90;;;;;;5030077;28;20038;-54
2022/03/24 05:39:00;;;;;;;63.20;34.00;;;3.80;99.90;;;;;;5024412;28;20409;-54
2022/03/24 05:41:27;;;;;;;55.75;31.98;;;3.70;99.90;;;;;;5029114;28;20623;-54
2022/03/24 05:44:06;;;;;;;56.95;32.80;;;3.70;99.90;;;;;;5001197;28;20041;-54
2022/03/24 05:46:44;;;;;;;65.53;35.40;;;3.70;99.90;;;;;;5007146;28;20045;-54
2022/03/24 05:49:15;;;;;;;64.70;33.58;;;3.70;99.90;;;;;;5039540;28;20045;-54
2022/03/24 05:51:42;;;;;;;47.47;29.08;;;3.70;99.90;;;;;;5032061;28;20121;-54
2022/03/24 05:54:13;;;;;;;54.95;30.95;;;3.70;99.90;;;;;;5040775;28;20050;-54
2022/03/24 05:56:39;;;;;;;62.05;32.45;;;4.00;99.90;;;;;;5046958;28;20041;-54
2022/03/24 05:59:05;;;;;;;55.28;31.23;;;3.60;99.90;;;;;;5052365;28;20037;-54
2022/03/24 06:01:30;;;;;;;56.08;32.63;;;3.60;99.90;;;;;;5046643;28;20042;-54
2022/03/24 06:03:59;;;;;;;65.53;36.05;;;3.60;99.90;;;;;;5039184;28;20045;-54
2022/03/24 06:06:26;;;;;;;71.68;37.33;;;3.60;99.90;;;;;;5033261;28;20513;-54
2022/03/24 06:08:53;;;;;;;66.68;37.00;;;3.60;99.90;;;;;;5031981;28;20497;-54
2022/03/24 06:11:19;;;;;;;67.85;36.83;;;3.70;99.90;;;;;;5032194;28;20046;-55
2022/03/24 06:13:46;;;;;;;60.38;34.90;;;3.80;99.90;;;;;;5031639;28;20139;-52
2022/03/24 06:16:13;;;;;;;64.78;36.90;;;3.80;99.90;;;;;;5030351;28;20083;-54
2022/03/24 06:18:39;;;;;;;72.68;37.50;;;3.90;99.90;;;;;;5031757;28;20497;-54
2022/03/24 06:21:06;;;;;;;69.32;38.85;;;3.90;99.90;;;;;;5021577;28;20057;-54
2022/03/24 06:23:31;;;;;;;71.22;37.85;;;4.00;99.90;;;;;;5026398;28;20049;-54
2022/03/24 06:25:57;;;;;;;66.32;37.05;;;4.00;99.90;;;;;;5032018;28;20094;-54
2022/03/24 06:28:24;;;;;;;65.97;36.78;;;4.00;99.90;;;;;;5030706;28;20046;-54
2022/03/24 06:30:50;;;;;;;68.78;36.60;;;4.10;99.90;;;;;;5011402;28;20034;-54
2022/03/24 06:33:16;;;;;;;65.70;36.63;;;4.10;99.90;;;;;;5029530;28;20522;-54
2022/03/24 06:35:43;;;;;;;69.85;36.38;;;4.20;99.90;;;;;;5030872;28;20331;-54
2022/03/24 06:38:09;;;;;;;66.13;36.50;;;4.20;99.90;;;;;;5031558;28;20069;-54
2022/03/24 06:40:35;;;;;;;62.58;36.97;;;4.30;99.90;;;;;;5031720;28;20144;-54
2022/03/24 06:43:00;;;;;;;74.22;38.67;;;4.40;99.90;;;;;;5030449;28;20052;-54
2022/03/24 06:45:26;;;;;;;76.53;38.70;;;4.50;99.90;;;;;;5031152;28;20037;-55
2022/03/24 06:47:53;;;;;;;66.00;38.55;;;4.50;99.90;;;;;;5033755;28;20037;-52
2022/03/24 06:50:18;;;;;;;71.57;39.53;;;4.50;99.90;;;;;;5042733;28;20063;-52
2022/03/24 06:52:44;;;;;;;64.80;37.00;;;4.50;99.90;;;;;;5041221;28;20485;-51
2022/03/24 06:55:14;;;;;;;64.93;36.45;;;4.60;99.90;;;;;;5042995;28;20427;-51
2022/03/24 06:57:41;;;;;;;63.63;35.50;;;4.60;99.90;;;;;;5043230;28;20048;-54
2022/03/24 07:00:07;;;;;;;67.05;37.63;;;4.70;99.90;;;;;;5041507;28;20072;-54
2022/03/24 07:02:33;;;;;;;66.50;37.10;;;4.80;99.90;;;;;;5012716;28;20115;-55
2022/03/24 07:04:58;;;;;;;64.60;37.47;;;4.90;99.90;;;;;;5029387;28;20041;-56
2022/03/24 07:07:26;;;;;;;66.30;37.90;;;5.00;99.90;;;;;;5022466;28;20092;-55
2022/03/24 07:09:52;;;;;;;66.80;39.08;;;5.10;99.90;;;;;;5030955;28;20045;-53
2022/03/24 07:12:21;;;;;;;67.35;40.00;;;5.20;99.90;;;;;;5026733;28;20106;-52
2022/03/24 07:14:47;;;;;;;70.22;40.13;;;5.30;99.90;;;;;;5042002;28;20397;-50
2022/03/24 07:17:14;;;;;;;71.57;38.88;;;5.50;99.90;;;;;;5031022;28;20091;-54
2022/03/24 07:19:40;;;;;;;71.18;41.00;;;5.60;99.90;;;;;;5031563;28;20421;-52
2022/03/24 07:22:05;;;;;;;73.45;40.72;;;5.70;99.90;;;;;;5031235;28;20034;-53
2022/03/24 07:24:31;;;;;;;75.25;39.35;;;5.90;99.90;;;;;;5032269;28;20049;-52
2022/03/24 07:26:56;;;;;;;69.97;38.45;;;5.90;99.90;;;;;;5022863;28;20092;-54
2022/03/24 07:29:22;;;;;;;74.82;41.47;;;6.00;99.90;;;;;;5028846;28;20045;-55
2022/03/24 07:31:48;;;;;;;69.97;40.05;;;6.10;99.90;;;;;;5031261;28;20440;-54
2022/03/24 07:34:14;;;;;;;70.95;42.38;;;6.30;99.90;;;;;;5027322;28;20033;-51
2022/03/24 07:36:40;;;;;;;68.57;42.40;;;6.40;99.90;;;;;;5034287;28;20538;-50
2022/03/24 07:39:06;;;;;;;72.72;41.97;;;6.60;99.90;;;;;;5027159;28;20037;-52
2022/03/24 07:41:32;;;;;;;68.03;42.53;;;6.80;99.90;;;;;;5033633;28;20037;-54
2022/03/24 07:43:59;;;;;;;69.82;42.58;;;7.00;99.90;;;;;;5037655;28;20183;-55
2022/03/24 07:46:24;;;;;;;73.80;42.20;;;7.20;99.90;;;;;;5040084;28;20036;-54
2022/03/24 07:48:50;;;;;;;70.15;40.63;;;7.40;99.90;;;;;;5028877;28;20395;-55
2022/03/24 07:51:16;;;;;;;71.10;40.75;;;7.60;99.90;;;;;;5028737;28;20060;-54
2022/03/24 07:53:48;;;;;;;68.68;40.83;;;7.80;99.90;;;;;;5028648;28;20493;-54
2022/03/24 07:56:18;;;;;;;64.97;41.28;;;8.00;99.90;;;;;;5028174;28;20042;-54
2022/03/24 07:58:44;;;;;;;68.30;40.03;;;8.30;99.90;;;;;;5033259;28;20069;-54
2022/03/24 08:01:13;;;;;;;66.35;39.17;;;8.50;99.90;;;;;;5033628;28;20450;-54
2022/03/24 08:03:39;;;;;;;60.63;40.47;;;8.70;99.90;;;;;;5033885;28;20438;-55
2022/03/24 08:06:05;;;;;;;67.95;39.97;;;8.80;99.90;;;;;;5036077;28;20076;-55
2022/03/24 08:08:30;;;;;;;61.92;36.38;;;9.00;99.90;;;;;;5036322;28;20080;-54
2022/03/24 08:10:57;;;;;;;59.38;36.53;;;8.80;99.90;;;;;;5032430;28;20113;-54
2022/03/24 08:13:23;;;;;;;59.15;35.20;;;9.30;99.90;;;;;;5031667;28;20057;-55
2022/03/24 08:15:49;;;;;;;67.93;37.05;;;9.50;99.90;;;;;;5033321;28;20065;-53
2022/03/24 08:18:16;;;;;;;63.45;37.15;;;9.60;99.90;;;;;;5041116;28;20083;-54
2022/03/24 08:20:44;;;;;;;55.47;34.75;;;9.80;99.90;;;;;;5028230;28;20450;-54
2022/03/24 08:23:10;;;;;;;60.85;35.42;;;10.00;99.90;;;;;;5029463;28;20109;-55
2022/03/24 08:25:40;;;;;;;57.53;35.15;;;10.10;99.90;;;;;;5027678;28;20411;-54
2022/03/24 08:28:06;;;;;;;67.57;35.80;;;10.20;99.90;;;;;;5028226;28;20361;-54
2022/03/24 08:30:32;;;;;;;60.60;35.47;;;10.40;99.90;;;;;;5011566;28;20048;-54
2022/03/24 08:32:58;;;;;;;61.42;34.05;;;10.50;99.90;;;;;;5027006;28;20045;-56
2022/03/24 08:35:24;;;;;;;56.20;34.40;;;10.60;99.40;;;;;;5028721;28;20049;-54
2022/03/24 08:37:50;;;;;;;56.03;35.72;;;10.80;99.10;;;;;;5032241;28;20029;-55
2022/03/24 08:40:15;;;;;;;60.42;35.42;;;10.90;98.70;;;;;;5019199;28;20172;-55
2022/03/24 08:42:42;;;;;;;60.38;33.90;;;11.10;98.40;;;;;;5033133;28;20037;-54
2022/03/24 08:45:10;;;;;;;59.22;35.22;;;11.20;97.30;;;;;;5035121;28;20136;-54
2022/03/24 08:47:36;;;;;;;56.60;35.13;;;11.30;97.10;;;;;;5033722;28;20041;-54
2022/03/24 08:50:05;;;;;;;54.08;32.78;;;11.50;96.10;;;;;;5033950;28;20251;-53
2022/03/24 08:52:30;;;;;;;60.38;33.22;;;11.60;96.00;;;;;;5033971;28;20053;-53
2022/03/24 08:54:57;;;;;;;59.30;34.08;;;11.80;95.70;;;;;;5032934;28;20509;-55
2022/03/24 08:57:26;;;;;;;56.53;33.78;;;11.90;95.10;;;;;;5033712;28;20064;-56
2022/03/24 08:59:56;;;;;;;54.90;33.05;;;12.00;94.40;;;;;;5033152;28;20533;-53
2022/03/24 09:02:22;;;;;;;55.97;32.67;;;12.10;94.40;;;;;;5030236;28;20033;-53
2022/03/24 09:04:48;;;;;;;51.38;30.98;;;12.30;94.20;;;;;;5023427;28;20069;-50
2022/03/24 09:07:15;;;;;;;57.03;34.85;;;12.40;93.90;;;;;;5021681;28;20093;-56
2022/03/24 09:09:41;;;;;;;58.03;32.70;;;12.60;92.50;;;;;;5013348;28;20042;-54
2022/03/24 09:12:09;;;;;;;58.33;33.50;;;12.70;92.40;;;;;;5014287;28;20124;-53
2022/03/24 09:14:44;;;;;;;53.38;32.13;;;12.80;91.90;;;;;;5033502;28;20037;-54
2022/03/24 09:17:10;;;;;;;49.00;31.88;;;12.90;92.00;;;;;;5033085;28;20041;-55
2022/03/24 09:19:36;;;;;;;54.83;32.10;;;13.10;91.10;;;;;;5033351;28;20033;-56
2022/03/24 09:22:06;;;;;;;52.67;33.55;;;13.20;90.80;;;;;;5033191;28;20452;-54
2022/03/24 09:24:34;;;;;;;51.22;32.38;;;13.30;90.30;;;;;;5015643;28;20045;-54
2022/03/24 09:27:00;;;;;;;53.80;32.60;;;13.40;90.80;;;;;;5031754;28;20052;-56
2022/03/24 09:29:26;;;;;;;59.03;33.00;;;13.50;90.70;;;;;;5033127;28;20047;-56
2022/03/24 09:31:52;;;;;;;50.65;32.17;;;13.60;90.30;;;;;;5032914;28;20489;-56
2022/03/24 09:34:18;;;;;;;50.20;30.70;;;13.70;87.50;;;;;;5031723;28;20038;-54
2022/03/24 09:36:44;;;;;;;56.47;31.48;;;13.80;84.30;;;;;;5032550;28;20068;-54
2022/03/24 09:39:10;;;;;;;51.15;30.85;;;13.90;83.70;;;;;;5032557;28;20091;-50
2022/03/24 09:41:36;;;;;;;52.50;30.13;;;14.00;83.20;;;;;;5028976;28;20095;-54
2022/03/24 09:44:06;;;;;;;50.38;30.80;;;14.10;81.80;;;;;;5033288;28;20073;-53
2022/03/24 09:46:32;;;;;;;54.65;31.60;;;14.20;81.20;;;;;;5043922;28;20079;-56
2022/03/24 09:48:58;;;;;;;45.45;29.75;;;14.30;80.60;;;;;;5042122;28;20041;-54
2022/03/24 09:51:29;;;;;;;51.25;31.05;;;14.40;79.30;;;;;;5031596;28;20049;-54
2022/03/24 09:53:54;;;;;;;49.60;29.98;;;14.50;78.70;;;;;;5031452;28;20038;-56
2022/03/24 09:56:20;;;;;;;49.88;29.38;;;14.60;74.90;;;;;;5033520;28;20048;-55
2022/03/24 09:58:49;;;;;;;61.45;30.33;;;14.70;74.50;;;;;;5043520;28;20047;-56
2022/03/24 10:01:15;;;;;;;50.50;27.63;;;14.80;72.10;;;;;;5040211;28;20056;-54
2022/03/24 10:04:01;;;;;;;52.28;28.50;;;14.80;72.70;;;;;;5042560;28;20126;-55
2022/03/24 10:06:26;;;;;;;43.65;27.63;;;14.90;71.20;;;;;;5045110;28;20040;-55
2022/03/24 10:08:59;;;;;;;46.67;27.20;;;15.00;72.70;;;;;;5125665;27;20399;-52
2022/03/24 10:11:26;;;;;;;48.78;29.73;;;15.10;72.00;;;;;;5117524;28;20068;-53
2022/03/24 10:13:54;;;;;;;50.30;32.58;;;15.10;71.30;;;;;;5122068;27;20058;-52
2022/03/24 10:16:37;;;;;;;52.65;32.95;;;15.30;73.00;;;;;;5120250;28;20134;-53
2022/03/24 10:19:06;;;;;;;50.92;31.02;;;15.30;74.20;;;;;;5112800;27;20043;-52
2022/03/24 10:21:33;;;;;;;51.35;30.48;;;15.40;72.20;;;;;;5138327;27;20399;-53
2022/03/24 10:24:07;;;;;;;48.22;30.08;;;15.50;71.90;;;;;;5128102;28;20556;-54
2022/03/24 10:26:39;;;;;;;49.60;30.70;;;15.50;72.40;;;;;;5129289;27;20039;-54
2022/03/24 10:29:05;;;;;;;51.00;31.58;;;15.60;72.10;;;;;;5128210;28;20122;-54
2022/03/24 10:31:35;;;;;;;51.28;30.77;;;15.60;70.90;;;;;;5129501;27;20110;-54
2022/03/24 10:34:01;;;;;;;50.33;30.83;;;15.70;69.90;;;;;;5129142;27;20039;-51
2022/03/24 10:36:28;;;;;;;50.50;29.08;;;15.70;69.60;;;;;;5125107;27;20092;-53
2022/03/24 10:38:58;;;;;;;51.65;28.60;;;15.80;66.10;;;;;;5125795;28;20071;-53
2022/03/24 10:41:27;;;;;;;46.97;28.48;;;15.90;66.80;;;;;;5124852;27;20040;-53
2022/03/24 10:43:56;;;;;;;44.47;26.98;;;15.80;66.50;;;;;;5122590;28;20043;-53
2022/03/24 10:46:28;;;;;;;43.65;26.35;;;15.80;64.60;;;;;;5121798;27;20031;-53
2022/03/24 10:48:54;;;;;;;43.53;26.15;;;15.90;62.10;;;;;;5124992;27;20040;-53
2022/03/24 10:51:27;;;;;;;41.22;24.55;;;16.00;61.60;;;;;;5117148;27;20401;-55
2022/03/24 10:54:02;;;;;;;44.75;24.10;;;16.10;59.10;;;;;;5125168;27;20039;-53
2022/03/24 10:56:31;;;;;;;41.92;22.45;;;16.20;56.50;;;;;;5119118;27;20038;-52
2022/03/24 10:59:00;;;;;;;37.97;20.20;;;16.20;56.20;;;;;;5120987;27;20028;-55
2022/03/24 11:01:27;;;;;;;39.08;21.75;;;16.30;55.40;;;;;;5126244;27;20036;-51
2022/03/24 11:03:55;;;;;;;34.05;22.50;;;16.40;55.10;;;;;;5125970;27;20027;-55
2022/03/24 11:06:24;;;;;;;35.13;19.08;;;16.40;52.90;;;;;;5125157;27;20778;-53
2022/03/24 11:08:59;;;;;;;34.55;17.85;;;16.50;52.00;;;;;;5125168;27;20036;-53
2022/03/24 11:11:25;;;;;;;26.40;15.13;;;16.70;49.50;;;;;;5118202;28;20098;-52
2022/03/24 11:13:59;;;;;;;30.58;16.90;;;16.70;45.40;;;;;;5118889;27;20050;-53
2022/03/24 11:16:26;;;;;;;27.67;15.57;;;16.70;47.20;;;;;;5124903;27;20035;-51
2022/03/24 11:18:53;;;;;;;29.88;14.45;;;16.80;47.90;;;;;;5113909;27;20039;-53
2022/03/24 11:21:32;;;;;;;32.42;17.27;;;16.90;45.50;;;;;;5103229;27;20052;-55
2022/03/24 11:23:58;;;;;;;30.63;18.85;;;17.00;47.50;;;;;;5100422;27;20044;-53
2022/03/24 11:26:25;;;;;;;36.97;19.17;;;16.90;48.30;;;;;;5110648;28;20306;-54
2022/03/24 11:28:54;;;;;;;34.97;18.20;;;16.90;49.30;;;;;;5100360;27;20134;-53
2022/03/24 11:31:20;;;;;;;34.72;17.23;;;17.00;49.30;;;;;;5116433;27;20043;-55
2022/03/24 11:33:49;;;;;;;34.80;16.95;;;17.00;48.30;;;;;;5110639;27;20043;-52
2022/03/24 11:36:18;;;;;;;32.85;18.63;;;17.00;48.50;;;;;;5111334;27;20134;-53
2022/03/24 11:38:47;;;;;;;33.80;19.50;;;17.10;48.60;;;;;;5111598;28;20042;-54
2022/03/24 11:41:35;;;;;;;32.70;16.90;;;17.10;49.40;;;;;;5105678;28;20094;-53
2022/03/24 11:44:19;;;;;;;34.75;15.95;;;17.20;48.40;;;;;;5107596;28;20406;-53
2022/03/24 11:47:00;;;;;;;29.15;15.95;;;17.20;47.50;;;;;;5105200;28;20036;-54
2022/03/24 11:49:30;;;;;;;32.80;15.82;;;17.20;46.20;;;;;;5107531;28;20080;-53
2022/03/24 11:51:58;;;;;;;32.58;16.20;;;17.20;47.60;;;;;;5111577;28;20059;-53
2022/03/24 11:54:30;;;;;;;27.85;17.33;;;17.30;47.80;;;;;;5111248;28;20228;-53
2022/03/24 11:57:32;;;;;;;30.25;15.93;;;17.40;47.20;;;;;;5111028;28;20047;-54
2022/03/24 12:00:12;;;;;;;32.13;16.33;;;17.50;45.80;;;;;;5048900;28;20052;-53
2022/03/24 12:02:48;;;;;;;33.55;17.95;;;17.40;47.70;;;;;;5097744;28;20446;-53
2022/03/24 12:05:14;;;;;;;34.63;18.83;;;17.50;47.60;;;;;;5110716;28;20039;-53
2022/03/24 12:07:40;;;;;;;31.25;18.55;;;17.50;46.70;;;;;;5109340;28;20553;-52
2022/03/24 12:10:08;;;;;;;29.55;18.08;;;17.50;47.00;;;;;;5108351;28;20069;-53
2022/03/24 12:12:37;;;;;;;29.88;16.50;;;17.50;47.40;;;;;;5098612;27;20075;-54
2022/03/24 12:15:11;;;;;;;34.20;17.75;;;17.50;46.30;;;;;;5095319;27;20039;-54
2022/03/24 12:17:37;;;;;;;27.90;16.70;;;17.50;46.90;;;;;;5095102;27;20043;-54
2022/03/24 12:20:21;;;;;;;31.00;18.33;;;17.60;46.90;;;;;;5087832;28;20048;-53
2022/03/24 12:22:47;;;;;;;35.53;17.58;;;17.70;47.00;;;;;;5110835;28;20506;-54
2022/03/24 12:25:12;;;;;;;34.88;18.70;;;17.60;46.10;;;;;;5110592;28;20414;-53
2022/03/24 12:28:24;;;;;;;33.10;18.05;;;17.60;46.10;;;;;;5105843;28;20040;-51
2022/03/24 12:31:08;;;;;;;34.83;17.08;;;17.60;46.90;;;;;;5046507;28;20036;-54
2022/03/24 12:33:39;;;;;;;32.58;16.80;;;17.60;47.30;;;;;;5054010;28;20119;-55
2022/03/24 12:36:06;;;;;;;30.45;16.95;;;17.60;47.00;;;;;;5090184;28;20108;-53